Time;durP1;ratioP1;P1;durP2;ratioP2;P2;SDS_P1;SDS_P2;PMS_P1;PMS_P2;Temp;Humidity;BMP_temperature;BMP_pressure;BME280_temperature;BME280_humidity;BME280_pressure;Samples;Min_cycle;Max_cycle;Signal;HPM_P1;HPM_P2
2023/06/10 00:01:23;;;;;;;22.70;18.52;;;;;;;15.94;83.25;100049.09;30378716;28;96751;-69
2023/06/10 00:16:23;;;;;;;24.30;18.00;;;;;;;16.04;83.63;100046.81;30374919;28;98395;-67
2023/06/10 00:31:24;;;;;;;20.38;16.25;;;;;;;16.08;83.23;100042.66;30376267;28;96765;-68
2023/06/10 00:46:26;;;;;;;21.95;15.85;;;;;;;16.08;82.96;100046.16;30375190;28;96755;-68
2023/06/10 01:01:29;;;;;;;20.37;16.97;;;;;;;15.97;83.35;100036.06;30373754;28;97494;-68
2023/06/10 01:16:29;;;;;;;19.63;16.90;;;;;;;16.04;83.20;100041.44;30372433;28;96824;-69
2023/06/10 01:31:49;;;;;;;20.05;16.15;;;;;;;16.16;83.53;100045.13;30371765;28;96724;-68
2023/06/10 01:46:50;;;;;;;21.27;16.93;;;;;;;16.26;83.71;100022.38;30382622;28;96706;-68
2023/06/10 02:01:50;;;;;;;21.25;14.75;;;;;;;16.33;83.59;100028.53;30388802;28;97108;-68
2023/06/10 02:16:51;;;;;;;18.92;14.50;;;;;;;16.40;83.51;100034.72;30387704;28;103415;-68
2023/06/10 02:31:52;;;;;;;22.33;14.80;;;;;;;16.36;83.36;100039.72;30387313;28;97197;-68
2023/06/10 02:46:53;;;;;;;24.70;21.70;;;;;;;16.35;83.27;100031.84;30385988;28;97542;-69
2023/06/10 03:01:53;;;;;;;19.65;15.63;;;;;;;16.20;83.06;100035.63;30383402;28;100121;-69
2023/06/10 03:16:54;;;;;;;18.00;13.80;;;;;;;16.27;83.33;100058.97;30382193;28;96695;-68
2023/06/10 03:31:54;;;;;;;16.55;13.18;;;;;;;16.35;83.39;100074.88;30381355;28;96780;-68
2023/06/10 03:46:56;;;;;;;15.80;13.38;;;;;;;16.47;83.20;100075.88;30379757;28;97539;-68
2023/06/10 04:01:56;;;;;;;15.77;14.07;;;;;;;16.58;82.65;100091.34;30377825;28;96577;-70
2023/06/10 04:16:56;;;;;;;17.92;14.07;;;;;;;16.66;82.83;100102.88;30376244;28;102260;-69
2023/06/10 04:31:57;;;;;;;17.73;14.95;;;;;;;16.69;82.46;100103.28;30376126;28;98084;-69
2023/06/10 04:46:57;;;;;;;16.05;14.35;;;;;;;16.82;82.58;100093.53;30374396;28;96886;-69
2023/06/10 05:01:58;;;;;;;16.58;14.80;;;;;;;16.97;82.32;100104.03;30373229;28;97670;-69
2023/06/10 05:16:59;;;;;;;16.57;14.87;;;;;;;17.33;82.07;100124.13;30368429;28;97254;-68
2023/06/10 05:32:02;;;;;;;21.23;18.92;;;;;;;17.90;81.36;100138.41;30386771;28;96723;-69
2023/06/10 05:47:03;;;;;;;18.73;15.07;;;;;;;18.63;80.85;100146.06;30384374;28;96740;-69
2023/06/10 06:02:04;;;;;;;15.27;13.77;;;;;;;19.50;80.05;100151.22;30383022;28;96734;-70
2023/06/10 06:17:04;;;;;;;18.83;14.67;;;;;;;20.23;78.06;100167.34;30346001;28;1170227;-69
2023/06/10 06:32:05;;;;;;;16.75;13.90;;;;;;;20.69;76.36;100163.00;30384620;28;97442;-69
2023/06/10 06:47:06;;;;;;;16.33;13.30;;;;;;;21.47;74.73;100179.72;30384035;28;96635;-71
2023/06/10 07:02:06;;;;;;;16.58;13.23;;;;;;;22.03;73.08;100195.34;30383365;28;96691;-70
2023/06/10 07:17:07;;;;;;;14.00;12.60;;;;;;;22.11;70.92;100203.06;30381646;28;97045;-69
2023/06/10 07:32:07;;;;;;;14.82;13.32;;;;;;;22.31;69.79;100213.41;30381862;28;96746;-71
2023/06/10 07:47:08;;;;;;;;;;;;;;;22.55;69.23;100218.69;30379159;28;97426;-70
2023/06/10 08:02:08;;;;;;;12.47;10.87;;;;;;;23.11;67.58;100225.94;30379258;28;97329;-68
2023/06/10 08:17:08;;;;;;;12.25;9.40;;;;;;;24.84;65.18;100232.47;30374585;28;109041;-69
2023/06/10 08:32:09;;;;;;;9.35;8.32;;;;;;;26.52;59.89;100235.81;30374743;28;113712;-68
2023/06/10 08:47:14;;;;;;;7.57;6.13;;;;;;;27.88;54.99;100245.13;30373946;28;97045;-69
2023/06/10 09:02:15;;;;;;;8.33;5.33;;;;;;;29.83;49.21;100240.25;30372325;28;97453;-69
2023/06/10 09:17:17;;;;;;;5.10;3.73;;;;;;;30.06;42.89;100237.72;30371960;28;96811;-69
2023/06/10 09:32:18;;;;;;;6.00;4.73;;;;;;;29.94;41.33;100229.16;30370812;28;96911;-70
2023/06/10 09:47:22;;;;;;;8.97;5.70;;;;;;;30.46;39.25;100226.34;30370003;28;97580;-71
2023/06/10 10:02:23;;;;;;;8.57;6.37;;;;;;;30.96;37.10;100220.13;30371473;28;96798;-71
2023/06/10 10:17:24;;;;;;;8.38;6.63;;;;;;;31.17;36.02;100193.06;30387467;28;97748;-69
2023/06/10 10:32:32;;;;;;;9.17;8.27;;;;;;;29.81;38.13;100189.50;30386632;28;96779;-71
2023/06/10 10:47:35;;;;;;;9.50;7.20;;;;;;;28.60;39.50;100163.13;30385088;28;96721;-70
2023/06/10 11:02:44;;;;;;;11.37;7.87;;;;;;;27.67;41.13;100174.94;30383069;28;97567;-70
2023/06/10 11:18:13;;;;;;;8.33;6.83;;;;;;;26.86;42.10;100166.09;30380417;28;97509;-67
2023/06/10 11:33:17;;;;;;;10.07;5.80;;;;;;;27.73;40.13;100150.25;30381292;28;96706;-70
2023/06/10 11:48:17;;;;;;;7.93;6.17;;;;;;;29.91;33.93;100158.34;30379093;28;96820;-68
2023/06/10 12:03:17;;;;;;;8.80;6.88;;;;;;;30.98;34.73;100158.22;30377424;28;96808;-71
2023/06/10 12:18:24;;;;;;;8.00;6.75;;;;;;;30.32;36.21;100158.41;30376342;28;97306;-70
2023/06/10 12:33:24;;;;;;;10.73;6.40;;;;;;;29.03;38.18;100138.50;30375750;28;97498;-67
2023/06/10 12:48:24;;;;;;;8.90;6.03;;;;;;;30.44;36.58;100118.63;30374738;28;96847;-67
2023/06/10 13:03:25;;;;;;;6.85;4.10;;;;;;;30.60;30.51;100108.16;30372328;28;96742;-70
2023/06/10 13:18:25;;;;;;;5.43;3.55;;;;;;;30.91;26.99;100113.00;30371446;28;98596;-69
2023/06/10 13:33:26;;;;;;;7.15;3.90;;;;;;;30.64;26.20;100107.22;30370066;28;96970;-68
2023/06/10 13:48:26;;;;;;;6.80;3.55;;;;;;;30.37;25.46;100108.03;30388722;28;105875;-69
2023/06/10 14:03:26;;;;;;;6.15;3.72;;;;;;;29.74;24.28;100109.47;30388596;28;96739;-67
2023/06/10 14:18:27;;;;;;;8.40;3.55;;;;;;;29.63;24.26;100108.81;30385454;28;104186;-68
2023/06/10 14:33:27;;;;;;;4.70;2.85;;;;;;;29.30;23.05;100111.53;30386774;28;97441;-69
2023/06/10 14:48:27;;;;;;;6.10;2.80;;;;;;;28.93;23.30;100102.19;30384484;28;96777;-68
2023/06/10 15:03:28;;;;;;;6.35;3.10;;;;;;;28.68;23.64;100099.47;30383061;28;116520;-68
2023/06/10 15:18:28;;;;;;;7.00;3.30;;;;;;;28.48;23.75;100107.94;30382854;28;96711;-68
2023/06/10 15:33:28;;;;;;;6.90;3.50;;;;;;;28.49;23.97;100117.78;30380385;28;108194;-68
2023/06/10 15:48:29;;;;;;;4.90;3.17;;;;;;;28.54;24.36;100123.19;30379408;28;111728;-68
2023/06/10 16:03:29;;;;;;;5.00;3.38;;;;;;;28.25;24.64;100118.56;30375172;28;99910;-68
2023/06/10 16:18:29;;;;;;;5.60;2.88;;;;;;;27.73;24.33;100133.84;30376611;28;96737;-67
2023/06/10 16:33:30;;;;;;;6.85;2.65;;;;;;;27.12;24.75;100128.50;30376286;28;96764;-68
2023/06/10 16:48:30;;;;;;;5.00;3.17;;;;;;;26.58;25.75;100134.75;30374327;28;113376;-69
2023/06/10 17:03:30;;;;;;;4.43;2.65;;;;;;;26.05;25.89;100137.88;30372161;28;109865;-68
2023/06/10 17:18:31;;;;;;;5.43;3.05;;;;;;;25.50;27.42;100154.75;30385931;28;102078;-67
2023/06/10 17:33:31;;;;;;;5.10;3.05;;;;;;;24.99;28.35;100171.78;30391921;28;96671;-69
2023/06/10 17:48:31;;;;;;;8.00;2.80;;;;;;;24.43;29.08;100188.63;30390072;28;99915;-68
2023/06/10 18:03:31;;;;;;;7.95;2.83;;;;;;;23.86;29.79;100209.13;30387979;28;109403;-67
2023/06/10 18:18:32;;;;;;;10.02;3.10;;;;;;;23.24;31.77;100220.16;30386000;28;97298;-67
2023/06/10 18:33:33;;;;;;;10.15;3.60;;;;;;;22.64;32.64;100228.06;30386510;28;96668;-68
2023/06/10 18:48:33;;;;;;;6.10;2.97;;;;;;;21.97;34.83;100232.41;30385112;28;97526;-68
2023/06/10 19:03:33;;;;;;;8.93;3.72;;;;;;;21.38;36.20;100253.50;30383752;28;96691;-67
2023/06/10 19:18:34;;;;;;;8.13;4.17;;;;;;;20.73;37.74;100274.34;30381795;28;107248;-68
2023/06/10 19:33:34;;;;;;;5.50;3.60;;;;;;;20.19;38.04;100296.84;30379533;28;96715;-67
2023/06/10 19:48:35;;;;;;;8.60;4.40;;;;;;;19.66;38.32;100303.78;30378724;28;97277;-68
2023/06/10 20:03:35;;;;;;;8.38;4.22;;;;;;;19.20;39.10;100316.75;30377341;28;96804;-67
2023/06/10 20:18:36;;;;;;;12.75;4.10;;;;;;;18.84;39.74;100312.94;30375889;28;96764;-67
2023/06/10 20:33:36;;;;;;;9.48;3.75;;;;;;;18.71;39.55;100322.00;30375329;28;96783;-67
2023/06/10 20:48:37;;;;;;;8.32;3.70;;;;;;;18.62;39.55;100328.72;30373255;28;98219;-69
2023/06/10 21:03:37;;;;;;;8.10;4.28;;;;;;;18.35;39.86;100317.31;30372511;28;97657;-68
2023/06/10 21:18:37;;;;;;;8.90;4.60;;;;;;;18.10;39.81;100334.25;30371380;28;110223;-69
2023/06/10 21:33:38;;;;;;;10.73;5.60;;;;;;;17.93;39.73;100337.47;30372184;28;96773;-69
2023/06/10 21:48:38;;;;;;;9.05;4.90;;;;;;;17.70;40.43;100335.25;30370567;28;109748;-69
2023/06/10 22:03:39;;;;;;;13.90;6.40;;;;;;;17.43;41.01;100346.13;30380643;28;97325;-69
2023/06/10 22:18:39;;;;;;;11.32;4.82;;;;;;;17.16;41.92;100339.97;30389534;28;97444;-69
2023/06/10 22:33:39;;;;;;;6.38;4.43;;;;;;;16.86;42.75;100332.31;30387504;28;96695;-69
2023/06/10 22:48:40;;;;;;;7.28;4.47;;;;;;;16.62;43.98;100338.31;30386531;28;102150;-69
2023/06/10 23:03:40;;;;;;;7.18;4.90;;;;;;;16.34;45.24;100337.47;30385259;28;97486;-68
2023/06/10 23:18:41;;;;;;;7.50;4.80;;;;;;;16.13;46.42;100346.53;30382814;28;114733;-69
2023/06/10 23:33:41;;;;;;;8.27;4.70;;;;;;;15.96;47.60;100339.88;30382668;28;97427;-68
2023/06/10 23:48:42;;;;;;;8.57;4.68;;;;;;;15.81;48.59;100348.91;30380895;28;96746;-68
